createdAt,value
2023-02-09T00:00:08.005Z,16.83
2023-02-09T00:02:35.472Z,17.23
2023-02-09T00:05:04.518Z,17.10
2023-02-09T00:07:31.134Z,17.70
2023-02-09T00:09:57.609Z,13.35
2023-02-09T00:12:42.804Z,19.58
2023-02-09T00:15:09.515Z,14.55
2023-02-09T00:17:37.593Z,16.67
2023-02-09T00:20:07.315Z,13.27
2023-02-09T00:22:34.360Z,15.57
2023-02-09T00:25:01.027Z,11.60
2023-02-09T00:27:30.448Z,14.38
2023-02-09T00:29:57.191Z,13.23
2023-02-09T00:32:23.661Z,15.48
2023-02-09T00:34:50.185Z,15.65
2023-02-09T00:37:16.700Z,13.60
2023-02-09T00:39:43.174Z,14.40
2023-02-09T00:42:11.178Z,18.80
2023-02-09T00:44:40.098Z,21.20
2023-02-09T00:47:08.546Z,21.27
2023-02-09T00:49:40.070Z,18.55
2023-02-09T00:52:08.938Z,14.57
2023-02-09T00:54:38.949Z,19.58
2023-02-09T00:57:05.746Z,16.02
2023-02-09T00:59:34.859Z,20.67
2023-02-09T01:02:01.930Z,21.30
2023-02-09T01:04:28.500Z,13.50
2023-02-09T01:06:55.099Z,17.52
2023-02-09T01:09:21.641Z,17.65
2023-02-09T01:11:48.148Z,18.30
2023-02-09T01:14:17.693Z,14.40
2023-02-09T01:16:44.455Z,18.38
2023-02-09T01:19:13.526Z,18.50
2023-02-09T01:21:40.879Z,18.05
2023-02-09T01:24:08.159Z,17.25
2023-02-09T01:26:34.731Z,24.58
2023-02-09T01:29:01.177Z,18.33
2023-02-09T01:31:32.708Z,19.20
2023-02-09T01:34:01.542Z,22.27
2023-02-09T01:36:30.081Z,25.15
2023-02-09T01:38:59.191Z,18.60
2023-02-09T01:41:26.004Z,18.35
2023-02-09T01:43:56.962Z,17.52
2023-02-09T01:46:27.601Z,17.00
2023-02-09T01:49:00.354Z,17.27
2023-02-09T01:51:30.727Z,18.83
2023-02-09T01:53:57.948Z,18.52
2023-02-09T01:56:31.312Z,18.77
2023-02-09T02:01:25.613Z,21.67
2023-02-09T02:03:56.446Z,35.63
2023-02-09T02:06:23.012Z,29.42
2023-02-09T02:09:01.099Z,37.30
2023-02-09T02:11:29.725Z,37.58
2023-02-09T02:13:57.511Z,27.33
2023-02-09T02:16:48.472Z,20.60
2023-02-09T02:19:55.152Z,19.33
2023-02-09T02:22:55.621Z,19.45
2023-02-09T02:25:54.569Z,19.20
2023-02-09T02:28:36.989Z,21.33
2023-02-09T02:31:06.504Z,20.92
2023-02-09T02:33:45.325Z,19.20
2023-02-09T02:37:02.867Z,18.90
2023-02-09T02:39:40.852Z,21.67
2023-02-09T02:42:49.736Z,20.52
2023-02-09T02:45:43.698Z,20.88
2023-02-09T02:50:51.280Z,16.63
2023-02-09T02:53:21.680Z,17.65
2023-02-09T02:55:52.372Z,18.50
2023-02-09T02:58:21.986Z,21.83
2023-02-09T03:00:55.520Z,19.05
2023-02-09T03:03:25.231Z,16.60
2023-02-09T03:05:52.413Z,19.23
2023-02-09T03:08:18.956Z,17.90
2023-02-09T03:10:46.311Z,18.38
2023-02-09T03:13:38.947Z,20.05
2023-02-09T03:16:32.079Z,18.77
2023-02-09T03:19:04.581Z,17.95
2023-02-09T03:21:34.104Z,16.33
2023-02-09T03:24:11.459Z,18.65
2023-02-09T03:27:05.766Z,19.60
2023-02-09T03:29:34.790Z,17.58
2023-02-09T03:32:01.325Z,16.77
2023-02-09T03:34:28.077Z,16.00
2023-02-09T03:36:57.340Z,18.02
2023-02-09T03:39:23.938Z,16.98
2023-02-09T03:41:50.407Z,14.38
2023-02-09T03:44:28.719Z,16.00
2023-02-09T03:46:58.273Z,18.70
2023-02-09T03:49:27.095Z,14.50
2023-02-09T03:51:53.978Z,15.77
2023-02-09T03:54:22.989Z,16.52
2023-02-09T03:56:49.531Z,18.70
2023-02-09T03:59:16.164Z,12.73
2023-02-09T04:01:42.808Z,15.18
2023-02-09T04:04:09.505Z,14.48
2023-02-09T04:06:36.098Z,15.35
2023-02-09T04:09:04.491Z,15.32
2023-02-09T04:11:33.317Z,15.25
2023-02-09T04:13:59.864Z,12.30
2023-02-09T04:16:26.902Z,16.40
2023-02-09T04:18:55.882Z,14.20
2023-02-09T04:21:22.977Z,17.70
2023-02-09T04:23:49.753Z,15.15
2023-02-09T04:26:16.687Z,14.70
2023-02-09T04:28:45.850Z,15.57
2023-02-09T04:31:13.295Z,15.43
2023-02-09T04:33:44.832Z,20.90
2023-02-09T04:36:11.936Z,15.95
2023-02-09T04:38:38.629Z,17.13
2023-02-09T04:41:06.108Z,15.93
2023-02-09T04:43:33.534Z,15.82
2023-02-09T04:46:00.878Z,16.63
2023-02-09T04:48:29.061Z,16.13
2023-02-09T04:50:58.672Z,18.52
2023-02-09T04:53:29.559Z,15.93
2023-02-09T04:55:56.168Z,14.35
2023-02-09T04:58:42.029Z,15.57
2023-02-09T05:01:12.164Z,17.10
2023-02-09T05:03:38.818Z,17.88
2023-02-09T05:06:05.989Z,18.27
2023-02-09T05:08:35.057Z,17.50
2023-02-09T05:11:01.946Z,19.23
2023-02-09T05:13:28.661Z,16.65
2023-02-09T05:15:55.695Z,15.60
2023-02-09T05:18:23.540Z,29.23
2023-02-09T05:20:50.534Z,21.40
2023-02-09T05:23:17.815Z,19.42
2023-02-09T05:25:47.914Z,22.55
2023-02-09T05:28:15.393Z,17.33
2023-02-09T05:30:42.893Z,16.98
2023-02-09T05:33:09.690Z,15.90
2023-02-09T05:35:36.394Z,17.20
2023-02-09T05:38:02.970Z,18.73
2023-02-09T05:40:29.575Z,19.05
2023-02-09T05:42:56.184Z,16.40
2023-02-09T05:45:25.298Z,19.65
2023-02-09T05:47:51.829Z,26.77
2023-02-09T05:50:18.500Z,18.17
2023-02-09T05:52:45.311Z,19.23
2023-02-09T05:55:11.852Z,15.65
2023-02-09T05:57:40.685Z,14.60
2023-02-09T06:00:09.983Z,17.70
2023-02-09T06:02:36.680Z,16.83
2023-02-09T06:05:03.432Z,18.83
2023-02-09T06:07:30.177Z,19.13
2023-02-09T06:09:56.720Z,20.25
2023-02-09T06:12:23.298Z,17.10
2023-02-09T06:14:49.907Z,18.38
2023-02-09T06:17:18.705Z,19.98
2023-02-09T06:19:45.260Z,17.17
2023-02-09T06:22:11.840Z,18.58
2023-02-09T06:24:38.448Z,18.80
2023-02-09T06:27:09.768Z,17.05
2023-02-09T06:29:36.313Z,14.18
2023-02-09T06:32:02.949Z,15.68
2023-02-09T06:34:29.799Z,17.10
2023-02-09T06:36:56.417Z,17.33
2023-02-09T06:39:24.362Z,14.82
2023-02-09T06:41:51.943Z,17.98
2023-02-09T06:44:19.537Z,17.83
2023-02-09T06:46:46.288Z,20.00
2023-02-09T06:49:12.879Z,19.38
2023-02-09T06:51:39.690Z,22.52
2023-02-09T06:54:06.273Z,25.00
2023-02-09T06:56:32.853Z,22.63
2023-02-09T06:59:01.630Z,23.45
2023-02-09T07:01:28.313Z,22.52
2023-02-09T07:03:57.434Z,30.55
2023-02-09T07:06:26.763Z,23.38
2023-02-09T07:08:53.346Z,21.88
2023-02-09T07:11:20.241Z,29.35
2023-02-09T07:13:47.440Z,24.77
2023-02-09T07:16:14.336Z,30.90
2023-02-09T07:18:41.568Z,27.50
2023-02-09T07:21:15.589Z,25.38
2023-02-09T07:23:44.729Z,21.83
2023-02-09T07:26:15.220Z,22.70
2023-02-09T07:28:42.507Z,18.50
2023-02-09T07:31:13.597Z,18.10
2023-02-09T07:33:40.291Z,18.02
2023-02-09T07:36:09.623Z,18.33
2023-02-09T07:38:37.183Z,15.32
2023-02-09T07:41:05.980Z,21.45
2023-02-09T07:43:33.119Z,30.20
2023-02-09T07:46:07.687Z,32.50
2023-02-09T07:48:38.139Z,32.03
2023-02-09T07:51:05.715Z,24.85
2023-02-09T07:53:33.623Z,23.25
2023-02-09T07:56:00.377Z,25.63
2023-02-09T07:58:27.042Z,18.42
2023-02-09T08:00:53.711Z,21.33
2023-02-09T08:03:22.574Z,22.27
2023-02-09T08:06:19.697Z,21.27
2023-02-09T08:08:48.139Z,21.85
2023-02-09T08:11:17.626Z,22.77
2023-02-09T08:13:44.937Z,18.45
2023-02-09T08:16:14.932Z,24.48
2023-02-09T08:18:50.279Z,24.02
2023-02-09T08:21:18.227Z,19.60
2023-02-09T08:23:48.188Z,21.95
2023-02-09T08:26:15.314Z,16.27
2023-02-09T08:28:45.815Z,17.45
2023-02-09T08:31:18.018Z,15.50
2023-02-09T08:33:46.161Z,17.13
2023-02-09T08:36:14.180Z,16.85
2023-02-09T08:38:41.118Z,18.83
2023-02-09T08:41:09.449Z,15.73
2023-02-09T08:43:36.517Z,13.48
2023-02-09T08:46:12.232Z,23.95
2023-02-09T08:48:42.535Z,18.38
2023-02-09T08:51:11.061Z,17.98
2023-02-09T08:53:37.683Z,19.33
2023-02-09T08:56:05.016Z,19.25
2023-02-09T08:58:33.361Z,17.65
2023-02-09T09:01:00.519Z,17.52
2023-02-09T09:03:31.514Z,20.40
2023-02-09T09:06:00.331Z,20.40
2023-02-09T09:08:27.094Z,15.57
2023-02-09T09:10:56.137Z,16.00
2023-02-09T09:13:24.733Z,16.30
2023-02-09T09:15:52.737Z,17.40
2023-02-09T09:18:19.428Z,14.63
2023-02-09T09:20:49.709Z,15.75
2023-02-09T09:23:16.536Z,15.85
2023-02-09T09:25:43.584Z,15.93
2023-02-09T09:28:10.853Z,13.88
2023-02-09T09:30:37.600Z,13.68
2023-02-09T09:33:05.143Z,15.02
2023-02-09T09:35:32.261Z,14.00
2023-02-09T09:37:58.804Z,14.88
2023-02-09T09:40:31.161Z,12.60
2023-02-09T09:43:03.743Z,14.27
2023-02-09T09:45:40.955Z,13.18
2023-02-09T09:48:22.698Z,13.52
2023-02-09T09:50:52.626Z,11.50
2023-02-09T09:53:31.761Z,13.55
2023-02-09T09:56:01.552Z,13.45
2023-02-09T09:58:30.127Z,16.27
2023-02-09T10:00:57.428Z,14.90
2023-02-09T10:03:25.325Z,12.10
2023-02-09T10:06:00.422Z,12.60
2023-02-09T10:08:37.191Z,12.52
2023-02-09T10:11:08.728Z,14.18
2023-02-09T10:13:35.166Z,13.88
2023-02-09T10:16:02.017Z,13.57
2023-02-09T10:18:30.157Z,16.02
2023-02-09T10:21:09.450Z,14.27
2023-02-09T10:23:43.676Z,11.82
2023-02-09T10:26:10.788Z,13.95
2023-02-09T10:28:42.201Z,14.82
2023-02-09T10:31:18.699Z,13.65
2023-02-09T10:33:46.553Z,14.80
2023-02-09T10:36:36.912Z,12.90
2023-02-09T10:39:12.515Z,13.18
2023-02-09T10:41:42.014Z,14.00
2023-02-09T10:44:16.686Z,13.40
2023-02-09T10:46:43.342Z,13.13
2023-02-09T10:50:02.757Z,13.70
2023-02-09T10:52:38.402Z,14.80
2023-02-09T10:55:17.321Z,11.90
2023-02-09T10:57:43.913Z,13.95
2023-02-09T11:00:16.609Z,11.95
2023-02-09T11:02:53.233Z,14.30
2023-02-09T11:05:22.577Z,20.50
2023-02-09T11:07:55.701Z,12.95
2023-02-09T11:10:23.483Z,17.50
2023-02-09T11:12:50.296Z,13.95
2023-02-09T11:15:23.828Z,18.67
2023-02-09T11:17:58.166Z,17.40
2023-02-09T11:20:40.153Z,13.68
2023-02-09T11:23:34.464Z,14.55
2023-02-09T11:28:46.287Z,10.88
2023-02-09T11:31:33.983Z,20.42
2023-02-09T11:34:29.453Z,18.02
2023-02-09T11:37:01.283Z,13.75
2023-02-09T11:39:43.026Z,13.57
2023-02-09T11:42:43.234Z,24.38
2023-02-09T11:45:44.220Z,12.55
2023-02-09T11:48:33.276Z,11.02
2023-02-09T11:51:15.316Z,8.50
2023-02-09T11:53:54.128Z,8.88
2023-02-09T11:56:23.141Z,10.43
2023-02-09T11:59:14.600Z,13.52
2023-02-09T12:01:56.494Z,11.35
2023-02-09T12:04:41.119Z,11.57
2023-02-09T12:07:10.702Z,16.65
2023-02-09T12:09:51.642Z,13.45
2023-02-09T12:12:29.220Z,12.52
2023-02-09T12:15:19.747Z,11.40
2023-02-09T12:18:08.383Z,8.43
2023-02-09T12:20:38.104Z,11.13
2023-02-09T12:23:10.708Z,10.43
2023-02-09T12:25:51.730Z,9.38
2023-02-09T12:28:24.513Z,10.00
2023-02-09T12:30:51.321Z,7.93
2023-02-09T12:33:25.199Z,11.25
2023-02-09T12:39:05.575Z,9.55
2023-02-09T12:41:35.374Z,8.73
2023-02-09T12:44:11.220Z,9.52
2023-02-09T12:46:55.982Z,10.10
2023-02-09T12:49:28.833Z,9.07
2023-02-09T12:52:01.585Z,10.97
2023-02-09T12:54:47.766Z,9.80
2023-02-09T12:57:17.872Z,10.70
2023-02-09T12:59:50.788Z,10.32
2023-02-09T13:02:39.341Z,9.82
2023-02-09T13:05:14.371Z,11.80
2023-02-09T13:07:50.558Z,12.10
2023-02-09T13:10:32.138Z,11.15
2023-02-09T13:13:10.948Z,10.20
2023-02-09T13:15:49.331Z,10.35
2023-02-09T13:18:36.345Z,11.45
2023-02-09T13:21:42.591Z,10.18
2023-02-09T13:24:22.004Z,12.43
2023-02-09T13:26:56.880Z,11.80
2023-02-09T13:29:25.048Z,14.38
2023-02-09T13:31:58.099Z,11.57
2023-02-09T13:34:35.812Z,12.68
2023-02-09T13:37:08.479Z,11.73
2023-02-09T13:39:40.860Z,12.88
2023-02-09T13:42:25.678Z,17.90
2023-02-09T13:44:55.770Z,10.95
2023-02-09T13:47:23.026Z,11.85
2023-02-09T13:50:01.200Z,17.77
2023-02-09T13:52:36.388Z,13.45
2023-02-09T13:55:16.114Z,12.75
2023-02-09T13:57:45.681Z,12.38
2023-02-09T14:00:24.498Z,12.38
2023-02-09T14:03:00.706Z,10.85
2023-02-09T14:05:35.435Z,12.10
2023-02-09T14:08:03.140Z,12.20
2023-02-09T14:10:31.735Z,11.80
2023-02-09T14:13:15.257Z,13.55
2023-02-09T14:16:04.406Z,15.93
2023-02-09T14:18:45.129Z,11.88
2023-02-09T14:21:11.740Z,13.93
2023-02-09T14:23:39.373Z,14.75
2023-02-09T14:26:15.919Z,14.60
2023-02-09T14:28:48.178Z,13.45
2023-02-09T14:31:24.589Z,14.20
2023-02-09T14:33:55.231Z,13.40
2023-02-09T14:36:36.352Z,12.35
2023-02-09T14:39:14.043Z,13.40
2023-02-09T14:41:40.682Z,13.40
2023-02-09T14:44:07.267Z,14.77
2023-02-09T14:46:51.219Z,11.15
2023-02-09T14:49:18.708Z,13.35
2023-02-09T14:51:46.960Z,17.63
2023-02-09T14:54:24.165Z,13.38
2023-02-09T14:56:54.865Z,14.90
2023-02-09T14:59:24.216Z,12.48
2023-02-09T15:01:53.252Z,12.82
2023-02-09T15:04:20.744Z,10.93
2023-02-09T15:06:52.162Z,11.18
2023-02-09T15:09:29.721Z,13.38
2023-02-09T15:12:04.738Z,14.25
2023-02-09T15:14:35.499Z,16.40
2023-02-09T15:17:04.504Z,15.88
2023-02-09T15:19:31.404Z,13.52
2023-02-09T15:22:06.963Z,13.10
2023-02-09T15:24:33.753Z,16.10
2023-02-09T15:27:03.159Z,16.23
2023-02-09T15:29:30.743Z,16.90
2023-02-09T15:31:57.360Z,15.10
2023-02-09T15:34:24.218Z,11.80
2023-02-09T15:36:50.875Z,14.73
2023-02-09T15:39:23.247Z,13.40
2023-02-09T15:42:08.335Z,14.60
2023-02-09T15:44:55.962Z,13.13
2023-02-09T15:47:41.139Z,14.25
2023-02-09T15:50:07.986Z,18.70
2023-02-09T15:52:36.803Z,14.90
2023-02-09T15:55:03.745Z,14.43
2023-02-09T15:57:30.423Z,13.75
2023-02-09T15:59:59.329Z,12.23
2023-02-09T16:02:26.290Z,292.88
2023-02-09T16:04:55.178Z,89.35
2023-02-09T16:07:26.553Z,33.40
2023-02-09T16:09:57.874Z,17.95
2023-02-09T16:12:24.494Z,15.93
2023-02-09T16:14:53.154Z,14.30
2023-02-09T16:17:19.928Z,22.75
2023-02-09T16:19:49.007Z,60.58
2023-02-09T16:22:15.818Z,51.33
2023-02-09T16:24:45.615Z,31.90
2023-02-09T16:27:24.098Z,27.50
2023-02-09T16:29:53.972Z,22.95
2023-02-09T16:32:22.652Z,37.75
2023-02-09T16:34:51.162Z,23.77
2023-02-09T16:37:25.116Z,18.08
2023-02-09T16:39:51.712Z,54.22
2023-02-09T16:42:18.410Z,52.45
2023-02-09T16:44:45.187Z,66.80
2023-02-09T16:47:21.305Z,61.70
2023-02-09T16:50:02.922Z,94.45
2023-02-09T16:52:30.365Z,105.97
2023-02-09T16:55:00.891Z,153.77
2023-02-09T16:57:30.824Z,121.03
2023-02-09T16:59:57.494Z,75.57
2023-02-09T17:02:49.839Z,87.45
2023-02-09T17:05:24.759Z,55.78
2023-02-09T17:07:55.481Z,66.88
2023-02-09T17:10:27.005Z,50.28
2023-02-09T17:12:54.084Z,50.38
2023-02-09T17:15:30.201Z,30.88
2023-02-09T17:18:04.002Z,26.30
2023-02-09T17:20:38.241Z,20.15
2023-02-09T17:23:07.448Z,16.52
2023-02-09T17:25:36.068Z,28.90
2023-02-09T17:28:02.858Z,28.98
2023-02-09T17:30:35.676Z,45.50
2023-02-09T17:33:07.681Z,51.00
2023-02-09T17:36:10.129Z,57.05
2023-02-09T17:38:29.533Z,34.30
2023-02-09T17:40:58.797Z,38.22
2023-02-09T17:43:25.623Z,43.92
2023-02-09T17:45:52.765Z,42.05
2023-02-09T17:48:21.462Z,39.15
2023-02-09T17:50:49.529Z,45.63
2023-02-09T17:53:35.446Z,46.40
2023-02-09T17:56:02.590Z,46.15
2023-02-09T17:58:29.671Z,46.65
2023-02-09T18:00:57.106Z,40.50
2023-02-09T18:03:26.017Z,35.28
2023-02-09T18:05:55.975Z,34.95
2023-02-09T18:08:22.838Z,38.35
2023-02-09T18:10:49.874Z,45.67
2023-02-09T18:13:20.863Z,42.20
2023-02-09T18:15:52.283Z,39.90
2023-02-09T18:18:18.962Z,35.28
2023-02-09T18:20:50.378Z,39.63
2023-02-09T18:23:19.447Z,35.88
2023-02-09T18:25:47.771Z,36.08
2023-02-09T18:28:15.195Z,38.00
2023-02-09T18:30:42.922Z,35.92
2023-02-09T18:33:10.436Z,46.15
2023-02-09T18:35:40.201Z,49.78
2023-02-09T18:38:11.434Z,63.58
2023-02-09T18:40:41.840Z,50.08
2023-02-09T18:43:09.011Z,34.83
2023-02-09T18:45:36.100Z,27.30
2023-02-09T18:48:02.905Z,30.02
2023-02-09T18:50:32.739Z,37.85
2023-02-09T18:53:02.153Z,40.40
2023-02-09T18:55:31.119Z,44.65
2023-02-09T18:58:00.227Z,46.58
2023-02-09T19:00:27.704Z,45.17
2023-02-09T19:02:57.900Z,44.65
2023-02-09T19:05:30.010Z,39.97
2023-02-09T19:07:57.052Z,37.05
2023-02-09T19:10:24.083Z,45.38
2023-02-09T19:12:50.904Z,49.58
2023-02-09T19:15:18.903Z,45.75
2023-02-09T19:17:46.131Z,58.78
2023-02-09T19:20:20.362Z,65.43
2023-02-09T19:22:51.650Z,65.00
2023-02-09T19:25:23.650Z,62.00
2023-02-09T19:27:50.389Z,66.05
2023-02-09T19:30:24.716Z,67.95
2023-02-09T19:32:52.684Z,71.80
2023-02-09T19:35:22.535Z,66.40
2023-02-09T19:37:53.541Z,63.92
2023-02-09T19:40:21.871Z,57.33
2023-02-09T19:42:50.919Z,34.25
2023-02-09T19:45:17.609Z,34.35
2023-02-09T19:47:44.309Z,33.70
2023-02-09T19:50:11.746Z,31.42
2023-02-09T19:52:41.145Z,39.05
2023-02-09T19:55:08.064Z,49.75
2023-02-09T19:57:34.996Z,38.65
2023-02-09T20:00:02.867Z,45.30
2023-02-09T20:02:31.079Z,45.50
2023-02-09T20:04:59.746Z,36.60
2023-02-09T20:07:28.665Z,33.85
2023-02-09T20:09:57.038Z,38.42
2023-02-09T20:12:26.144Z,34.50
2023-02-09T20:14:55.623Z,32.10
2023-02-09T20:17:22.540Z,34.08
2023-02-09T20:19:49.125Z,35.85
2023-02-09T20:22:15.908Z,30.38
2023-02-09T20:24:44.173Z,26.55
2023-02-09T20:27:13.179Z,29.95
2023-02-09T20:29:42.216Z,32.67
2023-02-09T20:32:10.784Z,32.88
2023-02-09T20:34:39.793Z,35.13
2023-02-09T20:37:07.666Z,28.35
2023-02-09T20:39:36.705Z,27.15
2023-02-09T20:42:24.518Z,32.72
2023-02-09T20:45:09.603Z,27.23
2023-02-09T20:47:36.215Z,27.38
2023-02-09T20:50:04.279Z,31.58
2023-02-09T20:52:34.707Z,27.80
2023-02-09T20:55:03.569Z,27.73
2023-02-09T20:57:32.669Z,28.08
2023-02-09T21:00:04.085Z,32.55
2023-02-09T21:02:33.221Z,26.00
2023-02-09T21:05:02.453Z,26.80
2023-02-09T21:07:29.163Z,30.73
2023-02-09T21:09:55.991Z,34.60
2023-02-09T21:12:22.839Z,45.80
2023-02-09T21:14:50.811Z,53.50
2023-02-09T21:17:21.145Z,43.45
2023-02-09T21:19:47.715Z,41.45
2023-02-09T21:22:15.812Z,42.60
2023-02-09T21:24:42.892Z,45.92
2023-02-09T21:27:09.396Z,44.90
2023-02-09T21:29:38.486Z,38.75
2023-02-09T21:32:06.668Z,36.92
2023-02-09T21:34:33.367Z,33.85
2023-02-09T21:36:59.901Z,25.92
2023-02-09T21:39:26.492Z,27.48
2023-02-09T21:42:11.296Z,28.95
2023-02-09T21:44:38.129Z,26.92
2023-02-09T21:47:04.929Z,30.10
2023-02-09T21:49:31.976Z,30.48
2023-02-09T21:51:59.339Z,28.42
2023-02-09T21:54:28.230Z,29.92
2023-02-09T21:56:55.516Z,24.92
2023-02-09T21:59:24.562Z,33.45
2023-02-09T22:01:51.078Z,36.40
2023-02-09T22:04:17.641Z,34.30
2023-02-09T22:06:44.175Z,33.45
2023-02-09T22:09:10.680Z,33.10
2023-02-09T22:11:37.112Z,31.10
2023-02-09T22:14:04.217Z,34.15
2023-02-09T22:16:31.138Z,33.63
2023-02-09T22:18:59.530Z,39.97
2023-02-09T22:21:28.264Z,31.38
2023-02-09T22:23:54.900Z,32.40
2023-02-09T22:26:21.615Z,44.50
2023-02-09T22:28:48.770Z,31.77
2023-02-09T22:31:20.169Z,35.83
2023-02-09T22:33:53.192Z,36.22
2023-02-09T22:36:20.797Z,31.42
2023-02-09T22:38:47.345Z,29.98
2023-02-09T22:41:23.896Z,27.25
2023-02-09T22:43:53.546Z,32.00
2023-02-09T22:46:24.060Z,29.50
2023-02-09T22:48:58.767Z,29.75
2023-02-09T22:51:29.345Z,30.02
2023-02-09T22:53:57.206Z,30.77
2023-02-09T22:56:24.716Z,30.45
2023-02-09T22:58:55.405Z,35.80
2023-02-09T23:01:22.053Z,41.35
2023-02-09T23:03:51.781Z,30.60
2023-02-09T23:06:21.307Z,32.40
2023-02-09T23:08:47.852Z,30.17
2023-02-09T23:11:19.985Z,30.15
2023-02-09T23:13:47.138Z,30.30
2023-02-09T23:16:18.972Z,34.90
2023-02-09T23:18:49.301Z,31.88
2023-02-09T23:21:16.988Z,34.03
2023-02-09T23:23:43.860Z,28.75
2023-02-09T23:26:16.168Z,26.00
2023-02-09T23:28:43.233Z,31.58
2023-02-09T23:31:21.270Z,30.40
2023-02-09T23:33:47.768Z,30.23
2023-02-09T23:36:20.196Z,30.23
2023-02-09T23:38:47.665Z,29.50
2023-02-09T23:41:20.068Z,29.38
2023-02-09T23:43:47.364Z,34.03
2023-02-09T23:46:16.763Z,27.98
2023-02-09T23:48:44.620Z,32.42
2023-02-09T23:51:19.885Z,29.98
2023-02-09T23:53:47.709Z,33.85
2023-02-09T23:56:18.257Z,28.50
2023-02-09T23:58:48.484Z,32.20
